Time;durP1;ratioP1;P1;durP2;ratioP2;P2;SDS_P1;SDS_P2;PMS_P1;PMS_P2;Temp;Humidity;BMP_temperature;BMP_pressure;BME280_temperature;BME280_humidity;BME280_pressure;Samples;Min_cycle;Max_cycle;Signal;HPM_P1;HPM_P2
2021/01/05 00:00:51;;;;;;;13.83;10.50;;;;;;;10.27;100.00;95567.22;6215284;23;20210;-90
2021/01/05 00:03:18;;;;;;;14.63;11.40;;;;;;;10.34;100.00;95558.47;6214929;23;20170;-90
2021/01/05 00:05:45;;;;;;;15.90;12.57;;;;;;;10.29;100.00;95559.97;6215215;23;20178;-90
2021/01/05 00:08:12;;;;;;;15.13;12.60;;;;;;;10.41;100.00;95558.59;6215883;23;20170;-91
2021/01/05 00:10:39;;;;;;;16.47;13.33;;;;;;;10.28;100.00;95553.09;6215624;23;20519;-91
2021/01/05 00:13:06;;;;;;;15.30;12.43;;;;;;;10.94;100.00;95560.31;6215433;23;20201;-91
2021/01/05 00:15:34;;;;;;;17.37;12.50;;;;;;;10.87;100.00;95540.16;6215071;23;20205;-90
2021/01/05 00:18:01;;;;;;;18.67;13.73;;;;;;;11.14;100.00;95544.81;6215580;23;20174;-90
2021/01/05 00:20:31;;;;;;;19.33;13.13;;;;;;;11.26;100.00;95547.84;6215402;23;20519;-90
2021/01/05 00:22:58;;;;;;;17.20;13.23;;;;;;;7.72;100.00;95523.16;6215218;23;20245;-90
2021/01/05 00:25:27;;;;;;;17.57;13.10;;;;;;;8.44;100.00;95515.63;6215062;23;20201;-90
2021/01/05 00:27:54;;;;;;;14.60;13.10;;;;;;;8.26;100.00;95513.13;6215305;23;20174;-90
2021/01/05 00:30:23;;;;;;;16.23;13.50;;;;;;;8.27;100.00;95530.47;6215404;23;20174;-90
2021/01/05 00:32:53;;;;;;;16.93;14.67;;;;;;;8.64;100.00;95542.31;6215402;23;20202;-89
2021/01/05 00:35:22;;;;;;;16.33;13.53;;;;;;;8.91;100.00;95543.75;6214957;23;20171;-89
2021/01/05 00:37:49;;;;;;;21.17;13.27;;;;;;;8.81;100.00;95549.97;6215045;23;20628;-91
2021/01/05 00:40:17;;;;;;;15.30;13.27;;;;;;;8.82;100.00;95548.19;6215269;23;20174;-90
2021/01/05 00:42:44;;;;;;;18.37;12.33;;;;;;;8.47;100.00;95547.53;6215215;23;20220;-91
2021/01/05 00:45:16;;;;;;;15.00;13.00;;;;;;;8.52;100.00;95552.25;6215007;23;20194;-91
2021/01/05 00:47:42;;;;;;;18.87;11.73;;;;;;;8.56;100.00;95550.97;6215043;23;20158;-90
2021/01/05 00:50:11;;;;;;;13.27;11.83;;;;;;;8.49;100.00;95561.28;6215272;23;20174;-90
2021/01/05 00:52:39;;;;;;;14.60;11.87;;;;;;;8.51;100.00;95576.81;6214999;23;20162;-90
2021/01/05 00:55:07;;;;;;;15.67;13.10;;;;;;;8.84;100.00;95579.47;6216202;23;20518;-90
2021/01/05 00:57:34;;;;;;;19.80;11.37;;;;;;;8.82;100.00;95577.81;6217353;23;20253;-90
2021/01/05 01:00:01;;;;;;;14.33;12.43;;;;;;;9.19;100.00;95589.59;6216844;23;20174;-91
2021/01/05 01:02:28;;;;;;;16.97;12.40;;;;;;;9.17;100.00;95603.84;6204533;23;20174;-91
2021/01/05 01:04:55;;;;;;;18.37;12.87;;;;;;;9.28;100.00;95609.56;6216612;23;20230;-90
2021/01/05 01:07:23;;;;;;;14.67;11.37;;;;;;;9.53;100.00;95622.63;6217142;23;20171;-90
2021/01/05 01:09:50;;;;;;;15.30;12.13;;;;;;;9.94;100.00;95622.47;6216789;23;20312;-90
2021/01/05 01:12:19;;;;;;;21.80;15.70;;;;;;;9.19;100.00;95618.41;6216840;23;20188;-90
2021/01/05 01:14:48;;;;;;;19.70;14.63;;;;;;;9.08;100.00;95618.78;6217365;23;20175;-91
2021/01/05 01:17:15;;;;;;;18.33;12.73;;;;;;;9.14;100.00;95623.31;6217128;23;20174;-91
2021/01/05 01:19:42;;;;;;;14.33;12.20;;;;;;;9.10;100.00;95632.50;6217076;23;20196;-91
2021/01/05 01:22:09;;;;;;;16.93;12.50;;;;;;;9.39;100.00;95616.28;6217113;23;20647;-91
2021/01/05 01:24:37;;;;;;;14.73;12.07;;;;;;;9.35;100.00;95625.47;6216433;23;20233;-91
2021/01/05 01:27:04;;;;;;;12.97;11.07;;;;;;;9.37;100.00;95633.16;6217146;23;20167;-90
2021/01/05 01:29:31;;;;;;;14.87;12.23;;;;;;;9.72;100.00;95637.16;6216617;23;20174;-91
2021/01/05 01:31:58;;;;;;;16.30;13.00;;;;;;;9.76;100.00;95631.41;6216644;23;20171;-90
2021/01/05 01:34:26;;;;;;;14.33;9.47;;;;;;;9.38;100.00;95626.91;6216526;23;20220;-91
2021/01/05 01:36:55;;;;;;;15.93;10.83;;;;;;;9.46;100.00;95629.53;6216886;23;20170;-90
2021/01/05 01:39:22;;;;;;;13.03;10.03;;;;;;;9.48;100.00;95624.91;6216505;23;20171;-91
2021/01/05 01:41:50;;;;;;;13.33;10.87;;;;;;;9.71;100.00;95625.84;6216454;23;20308;-91
2021/01/05 01:44:20;;;;;;;14.97;11.77;;;;;;;9.73;100.00;95626.50;6216833;23;20233;-91
2021/01/05 01:46:47;;;;;;;16.77;12.17;;;;;;;9.68;100.00;95623.56;6216651;23;20181;-90
2021/01/05 01:49:14;;;;;;;12.30;10.77;;;;;;;9.60;100.00;95622.78;6216529;23;20694;-90
2021/01/05 01:51:43;;;;;;;14.60;10.97;;;;;;;10.07;100.00;95614.06;6216344;23;20171;-91
2021/01/05 01:55:02;;;;;;;14.77;10.43;;;;;;;10.10;100.00;95609.28;6216317;23;20170;-91
2021/01/05 01:58:14;;;;;;;13.40;11.70;;;;;;;10.11;100.00;95607.47;6206683;23;20245;-91
2021/01/05 02:00:52;;;;;;;14.37;11.67;;;;;;;10.12;100.00;95602.06;6209657;23;20253;-90
2021/01/05 02:03:43;;;;;;;14.37;10.67;;;;;;;9.96;100.00;95594.25;6216472;23;20225;-91
2021/01/05 02:06:26;;;;;;;21.50;19.30;;;;;;;9.77;100.00;95590.25;6216162;23;20174;-91
2021/01/05 02:09:07;;;;;;;17.10;11.83;;;;;;;9.74;100.00;95585.34;6216413;23;20181;-90
2021/01/05 02:11:55;;;;;;;13.23;10.93;;;;;;;9.76;100.00;95583.34;6216611;23;20217;-91
2021/01/05 02:14:36;;;;;;;12.47;9.27;;;;;;;9.97;100.00;95583.56;6216338;23;20155;-91
2021/01/05 02:17:30;;;;;;;13.07;11.77;;;;;;;10.13;100.00;95579.25;6216654;23;20503;-91
2021/01/05 02:20:02;;;;;;;17.90;10.83;;;;;;;9.97;100.00;95580.94;6203480;23;20177;-90
2021/01/05 02:22:36;;;;;;;15.70;10.73;;;;;;;9.86;100.00;95578.72;6216375;23;20163;-90
2021/01/05 02:25:10;;;;;;;12.23;10.80;;;;;;;9.79;100.00;95574.31;6216063;23;20217;-90
2021/01/05 02:27:45;;;;;;;16.83;10.53;;;;;;;9.74;100.00;95577.47;6215963;23;20166;-91
2021/01/05 02:30:17;;;;;;;19.20;11.10;;;;;;;9.61;100.00;95579.81;6215989;23;20158;-91
2021/01/05 02:32:53;;;;;;;29.80;11.83;;;;;;;9.58;100.00;95577.53;6216170;23;20224;-91
2021/01/05 02:35:44;;;;;;;19.33;11.93;;;;;;;9.83;100.00;95579.06;6216004;23;20158;-91
2021/01/05 02:38:35;;;;;;;22.97;11.10;;;;;;;9.78;100.00;95584.00;6215944;23;20162;-90
2021/01/05 02:41:21;;;;;;;32.57;12.13;;;;;;;9.87;100.00;95585.63;6216339;23;20158;-90
2021/01/05 02:44:23;;;;;;;50.17;16.37;;;;;;;9.84;100.00;95582.53;6216413;23;20546;-90
2021/01/05 02:46:54;;;;;;;31.13;13.60;;;;;;;10.16;100.00;95581.53;6215971;23;20169;-91
2021/01/05 02:49:35;;;;;;;68.87;18.70;;;;;;;10.42;100.00;95589.94;6216088;23;20155;-91
2021/01/05 02:52:43;;;;;;;72.60;16.20;;;;;;;10.56;100.00;95590.16;6216423;23;20197;-91
2021/01/05 02:55:56;;;;;;;71.20;15.93;;;;;;;10.41;100.00;95579.59;6216364;23;20170;-91
2021/01/05 02:58:51;;;;;;;49.00;13.33;;;;;;;10.42;100.00;95575.97;6215860;23;20154;-91
2021/01/05 03:01:53;;;;;;;72.77;16.57;;;;;;;10.62;100.00;95573.72;6215810;23;20159;-91
2021/01/05 03:04:20;;;;;;;110.17;15.97;;;;;;;11.00;100.00;95571.91;6215554;23;20557;-91
2021/01/05 03:06:51;;;;;;;133.37;23.77;;;;;;;8.22;100.00;95557.13;6215660;23;20172;-91
2021/01/05 03:09:57;;;;;;;118.23;20.47;;;;;;;7.85;100.00;95558.34;6215663;23;20174;-90
2021/01/05 03:12:43;;;;;;;133.87;21.93;;;;;;;7.57;100.00;95555.16;6206071;23;20177;-91
2021/01/05 03:15:21;;;;;;;172.00;23.37;;;;;;;7.60;100.00;95569.72;6216030;23;20580;-90
2021/01/05 03:17:55;;;;;;;119.43;21.23;;;;;;;7.97;100.00;95592.91;6215266;23;20165;-91
2021/01/05 03:20:27;;;;;;;169.83;26.37;;;;;;;8.14;100.00;95593.78;6215520;23;20163;-90
2021/01/05 03:22:57;;;;;;;151.10;24.67;;;;;;;7.99;100.00;95601.41;6216111;23;20158;-91
2021/01/05 03:25:25;;;;;;;103.13;27.03;;;;;;;8.24;100.00;95615.41;6215635;23;20280;-91
2021/01/05 03:27:56;;;;;;;167.50;27.37;;;;;;;8.41;100.00;95612.81;6215921;23;20166;-90
2021/01/05 03:30:28;;;;;;;201.03;33.40;;;;;;;8.36;100.00;95636.03;6215564;23;20162;-91
2021/01/05 03:32:56;;;;;;;159.93;23.37;;;;;;;8.43;100.00;95640.50;6215689;23;20237;-90
2021/01/05 03:35:23;;;;;;;165.80;31.33;;;;;;;8.31;100.00;95647.81;6215457;23;20177;-90
2021/01/05 03:37:50;;;;;;;219.60;28.57;;;;;;;8.37;100.00;95651.56;6215342;23;20702;-91
2021/01/05 03:40:17;;;;;;;148.67;21.90;;;;;;;8.55;100.00;95652.28;6215796;23;20169;-91
2021/01/05 03:42:43;;;;;;;198.97;31.17;;;;;;;8.78;100.00;95654.31;6215782;23;20570;-91
2021/01/05 03:45:18;;;;;;;250.50;36.20;;;;;;;9.26;100.00;95671.03;6215157;23;20198;-91
2021/01/05 03:47:44;;;;;;;156.70;21.77;;;;;;;9.62;100.00;95678.50;6215319;23;20162;-91
2021/01/05 03:50:13;;;;;;;170.67;26.77;;;;;;;9.55;100.00;95694.09;6215631;23;20169;-91
2021/01/05 03:52:40;;;;;;;156.83;23.33;;;;;;;9.60;100.00;95691.81;6215226;23;20181;-91
2021/01/05 03:55:09;;;;;;;149.53;24.27;;;;;;;9.61;100.00;95705.75;6215347;23;20170;-91
2021/01/05 03:57:36;;;;;;;184.37;24.80;;;;;;;9.85;100.00;95710.13;6215519;23;20170;-90
2021/01/05 04:00:05;;;;;;;159.33;23.67;;;;;;;10.07;100.00;95719.91;6215425;23;20236;-91
2021/01/05 04:02:32;;;;;;;139.10;22.37;;;;;;;10.10;100.00;95724.81;6215286;23;20224;-91
2021/01/05 04:04:59;;;;;;;101.67;17.40;;;;;;;10.75;100.00;95730.84;6214826;23;20270;-91
2021/01/05 04:07:26;;;;;;;36.47;13.37;;;;;;;10.00;100.00;95729.44;6215128;23;20171;-91
2021/01/05 04:09:54;;;;;;;28.27;13.93;;;;;;;8.63;100.00;95727.47;6215238;23;20662;-92
2021/01/05 04:12:20;;;;;;;108.93;26.30;;;;;;;8.86;100.00;95729.47;6215127;23;20494;-91
2021/01/05 04:14:47;;;;;;;11.07;9.40;;;;;;;8.64;100.00;95723.88;6215442;23;20193;-91
2021/01/05 04:17:14;;;;;;;12.60;9.63;;;;;;;8.65;100.00;95732.53;6215170;23;20177;-91
2021/01/05 04:19:41;;;;;;;14.80;10.10;;;;;;;8.72;100.00;95729.13;6215140;23;20170;-92
2021/01/05 04:22:08;;;;;;;103.17;83.43;;;;;;;9.03;100.00;95731.13;6215482;23;20530;-90
2021/01/05 04:24:36;;;;;;;26.87;23.43;;;;;;;9.34;100.00;95733.94;6215206;23;20539;-91
2021/01/05 04:27:03;;;;;;;14.97;12.87;;;;;;;9.60;100.00;95746.09;6215172;23;20245;-91
2021/01/05 04:29:29;;;;;;;12.20;10.10;;;;;;;9.76;100.00;95756.56;6216077;23;20620;-91
2021/01/05 04:31:56;;;;;;;18.03;12.63;;;;;;;9.63;100.00;95758.84;6217257;23;20174;-91
2021/01/05 04:34:23;;;;;;;33.33;22.50;;;;;;;9.84;100.00;95761.00;6217451;23;20569;-91
2021/01/05 04:36:50;;;;;;;36.00;27.70;;;;;;;9.83;100.00;95770.66;6217136;23;20174;-91
2021/01/05 04:39:17;;;;;;;28.27;19.23;;;;;;;9.12;100.00;95772.13;6217497;23;20169;-90
2021/01/05 04:41:51;;;;;;;14.10;12.60;;;;;;;9.28;100.00;95768.69;6217413;23;20170;-91
2021/01/05 04:44:18;;;;;;;25.87;18.93;;;;;;;9.00;100.00;95770.78;6217061;23;20188;-91
2021/01/05 04:47:00;;;;;;;30.10;22.40;;;;;;;8.94;100.00;95776.69;6214256;23;20170;-89
2021/01/05 04:52:59;;;;;;;12.03;9.97;;;;;;;9.05;100.00;95782.44;6113676;23;20247;-91
2021/01/05 04:55:45;;;;;;;11.33;9.83;;;;;;;9.09;100.00;95787.34;6215947;23;20190;-92
2021/01/05 04:58:22;;;;;;;10.97;9.87;;;;;;;8.88;100.00;95793.84;6215730;23;20177;-92
2021/01/05 05:00:49;;;;;;;11.10;9.50;;;;;;;8.43;100.00;95802.03;6216202;23;20170;-94
2021/01/05 05:03:33;;;;;;;9.00;7.67;;;;;;;8.43;100.00;95802.03;6215946;23;20162;-92
2021/01/05 05:06:32;;;;;;;8.87;7.60;;;;;;;8.50;100.00;95813.53;6215615;23;20276;-91
2021/01/05 05:09:10;;;;;;;7.90;7.10;;;;;;;8.56;100.00;95810.28;6194152;23;20170;-92
2021/01/05 05:11:54;;;;;;;10.57;7.53;;;;;;;8.31;100.00;95825.00;6216033;23;20220;-92
2021/01/05 05:14:37;;;;;;;9.90;8.17;;;;;;;8.31;100.00;95827.63;6216277;23;20173;-90
2021/01/05 05:17:30;;;;;;;12.73;9.80;;;;;;;8.61;100.00;95828.97;6216878;23;20636;-90
2021/01/05 05:20:12;;;;;;;9.73;8.73;;;;;;;8.89;100.00;95834.81;6217062;23;20472;-92
2021/01/05 05:22:51;;;;;;;12.00;9.60;;;;;;;8.78;100.00;95827.25;6216651;23;20162;-89
2021/01/05 05:25:25;;;;;;;9.03;8.23;;;;;;;8.82;100.00;95828.56;6216565;23;20190;-91
2021/01/05 05:27:58;;;;;;;8.17;7.17;;;;;;;8.84;100.00;95820.56;6216631;23;20165;-90
2021/01/05 05:30:34;;;;;;;6.67;5.97;;;;;;;9.28;100.00;95827.22;6216557;23;20164;-89
2021/01/05 05:33:03;;;;;;;8.87;6.43;;;;;;;8.98;100.00;95844.34;6216433;23;20607;-89
2021/01/05 05:36:04;;;;;;;8.67;7.27;;;;;;;9.01;100.00;95840.59;6216725;23;20746;-89
2021/01/05 05:38:57;;;;;;;6.30;5.70;;;;;;;8.90;100.00;95846.09;6216751;23;20241;-90
2021/01/05 05:41:36;;;;;;;4.87;4.37;;;;;;;8.64;100.00;95843.56;6151745;23;20205;-91
2021/01/05 05:44:19;;;;;;;4.70;4.23;;;;;;;8.55;100.00;95853.16;6216860;23;20169;-89
2021/01/05 05:46:55;;;;;;;3.70;3.37;;;;;;;8.63;100.00;95850.59;6216366;23;20216;-91
2021/01/05 05:49:36;;;;;;;3.83;3.53;;;;;;;8.81;100.00;95848.69;6216568;23;20240;-90
2021/01/05 05:52:09;;;;;;;4.40;4.00;;;;;;;8.89;100.00;95847.91;6217268;23;20560;-90
2021/01/05 05:54:36;;;;;;;3.97;3.67;;;;;;;8.77;100.00;95844.75;6216656;23;20511;-90
2021/01/05 05:57:30;;;;;;;6.27;4.90;;;;;;;9.11;100.00;95848.28;6216393;23;20166;-90
2021/01/05 06:00:07;;;;;;;3.70;2.80;;;;;;;8.68;100.00;95847.50;6216695;23;20163;-90
2021/01/05 06:02:35;;;;;;;4.10;3.70;;;;;;;8.84;100.00;95841.50;6216693;23;20205;-90
2021/01/05 06:05:17;;;;;;;4.07;3.77;;;;;;;9.00;100.00;95852.03;6215953;23;20202;-90
2021/01/05 06:07:44;;;;;;;5.50;4.30;;;;;;;8.77;100.00;95850.00;6216416;23;20174;-90
2021/01/05 06:10:11;;;;;;;5.93;5.10;;;;;;;8.81;100.00;95851.31;6216486;23;20175;-90
2021/01/05 06:12:38;;;;;;;21.93;15.80;;;;;;;8.99;100.00;95853.03;6216087;23;20178;-90
2021/01/05 06:15:06;;;;;;;8.60;6.77;;;;;;;8.65;100.00;95859.09;6216176;23;20209;-90
2021/01/05 06:17:33;;;;;;;6.30;5.57;;;;;;;8.61;100.00;95855.16;6216019;23;20174;-91
2021/01/05 06:20:01;;;;;;;7.07;5.53;;;;;;;8.69;100.00;95852.56;6216038;23;20174;-90
2021/01/05 06:22:28;;;;;;;10.27;8.80;;;;;;;8.56;100.00;95855.63;6216174;23;20292;-90
2021/01/05 06:24:55;;;;;;;16.23;13.97;;;;;;;8.76;100.00;95868.47;6216013;23;20201;-90
2021/01/05 06:27:22;;;;;;;7.93;6.30;;;;;;;8.73;100.00;95867.03;6216350;23;20174;-89
2021/01/05 06:29:48;;;;;;;7.40;6.70;;;;;;;8.70;100.00;95877.00;6216413;23;20170;-89
2021/01/05 06:32:15;;;;;;;5.87;4.83;;;;;;;8.52;100.00;95877.03;6216085;23;20170;-90
2021/01/05 06:34:42;;;;;;;4.97;4.23;;;;;;;8.51;100.00;95878.03;6216088;23;20170;-89
2021/01/05 06:37:10;;;;;;;3.90;3.60;;;;;;;8.66;100.00;95886.13;6216232;23;20174;-90
2021/01/05 06:39:37;;;;;;;4.43;4.13;;;;;;;8.80;100.00;95888.19;6216083;23;20170;-90
2021/01/05 06:42:05;;;;;;;4.67;3.60;;;;;;;8.50;100.00;95887.69;6215961;23;20249;-90
2021/01/05 06:44:31;;;;;;;3.37;3.07;;;;;;;8.24;100.00;95889.44;6215813;23;20252;-89
2021/01/05 06:46:58;;;;;;;4.37;4.00;;;;;;;8.66;100.00;95902.69;6215829;23;20177;-91
2021/01/05 06:49:27;;;;;;;3.70;3.40;;;;;;;8.53;100.00;95907.50;6215733;23;20312;-90
2021/01/05 06:51:54;;;;;;;2.97;2.77;;;;;;;8.53;100.00;95910.13;6215936;23;20611;-90
2021/01/05 06:54:22;;;;;;;3.03;2.73;;;;;;;8.26;100.00;95909.25;6215737;23;20170;-90
2021/01/05 06:56:49;;;;;;;3.13;2.90;;;;;;;8.47;100.00;95913.38;6215716;23;20253;-91
2021/01/05 06:59:17;;;;;;;5.50;4.53;;;;;;;7.99;100.00;95912.00;6215661;23;20181;-90
2021/01/05 07:01:50;;;;;;;3.50;3.20;;;;;;;8.02;100.00;95915.13;6216082;23;20624;-91
2021/01/05 07:04:17;;;;;;;3.27;2.13;;;;;;;8.09;100.00;95920.59;6215749;23;20202;-90
2021/01/05 07:06:45;;;;;;;3.73;2.93;;;;;;;8.19;100.00;95915.28;6215957;23;20178;-91
2021/01/05 07:09:12;;;;;;;7.00;5.83;;;;;;;8.33;100.00;95919.94;6216171;23;20194;-90
2021/01/05 07:11:40;;;;;;;6.87;6.17;;;;;;;8.43;100.00;95912.84;6215569;23;20174;-91
2021/01/05 07:14:07;;;;;;;6.07;5.20;;;;;;;8.43;100.00;95906.78;6215894;23;20166;-91
2021/01/05 07:16:34;;;;;;;5.93;5.43;;;;;;;8.34;100.00;95905.88;6215572;23;20217;-91
2021/01/05 07:19:01;;;;;;;14.13;9.70;;;;;;;8.51;100.00;95909.44;6215370;23;20636;-91
2021/01/05 07:21:28;;;;;;;9.23;8.23;;;;;;;8.50;100.00;95898.16;6215331;23;20170;-91
2021/01/05 07:23:54;;;;;;;8.00;7.30;;;;;;;8.64;100.00;95901.19;6215480;23;20177;-90
2021/01/05 07:26:21;;;;;;;5.73;5.20;;;;;;;8.86;100.00;95907.69;6215426;23;20667;-90
2021/01/05 07:28:49;;;;;;;4.90;4.50;;;;;;;8.57;100.00;95908.84;6215846;23;20528;-90
2021/01/05 07:31:16;;;;;;;6.90;6.20;;;;;;;8.84;100.00;95913.09;6215300;23;20587;-90
2021/01/05 07:33:43;;;;;;;4.77;4.27;;;;;;;8.79;100.00;95908.28;6215506;23;20170;-90
2021/01/05 07:36:19;;;;;;;5.40;4.63;;;;;;;8.90;100.00;95911.63;6215970;23;20170;-90
2021/01/05 07:38:46;;;;;;;3.33;3.03;;;;;;;8.68;100.00;95907.75;6215763;23;20165;-90
2021/01/05 07:41:12;;;;;;;4.47;4.10;;;;;;;8.81;100.00;95908.16;6215461;23;20650;-90
2021/01/05 07:43:39;;;;;;;3.97;3.67;;;;;;;8.85;100.00;95921.78;6215231;23;20713;-91
2021/01/05 07:46:07;;;;;;;3.80;3.50;;;;;;;8.81;100.00;95929.94;6215158;23;20224;-90
2021/01/05 07:48:34;;;;;;;9.40;8.23;;;;;;;8.72;100.00;95943.97;6215307;23;20170;-90
2021/01/05 07:51:01;;;;;;;12.67;11.30;;;;;;;8.55;100.00;95950.06;6215182;23;20171;-90
2021/01/05 07:53:28;;;;;;;7.97;7.17;;;;;;;8.43;100.00;95959.16;6215174;23;20209;-90
2021/01/05 07:55:54;;;;;;;5.37;4.77;;;;;;;8.46;100.00;95970.16;6215237;23;20228;-90
2021/01/05 07:58:21;;;;;;;3.20;2.90;;;;;;;8.70;100.00;95969.50;6215257;23;20229;-90
2021/01/05 08:00:48;;;;;;;3.27;2.97;;;;;;;8.92;100.00;95977.81;6215374;23;20177;-90
2021/01/05 08:03:16;;;;;;;6.40;3.63;;;;;;;9.17;100.00;95976.16;6215387;23;20219;-90
2021/01/05 08:05:43;;;;;;;3.73;3.43;;;;;;;9.22;100.00;95972.09;6215246;23;20186;-90
2021/01/05 08:08:10;;;;;;;4.93;4.27;;;;;;;9.28;100.00;95981.09;6215835;23;20185;-90
2021/01/05 08:10:39;;;;;;;4.33;3.60;;;;;;;9.30;100.00;95989.66;6215277;23;20184;-90
2021/01/05 08:13:07;;;;;;;2.37;2.27;;;;;;;9.35;100.00;95987.38;6215055;23;20216;-90
2021/01/05 08:15:35;;;;;;;3.00;2.80;;;;;;;9.34;100.00;95985.72;6215052;23;20166;-90
2021/01/05 08:18:01;;;;;;;2.00;1.90;;;;;;;9.39;100.00;95982.66;6215163;23;20260;-90
2021/01/05 08:20:31;;;;;;;3.33;3.03;;;;;;;9.85;100.00;95986.56;6215051;23;20178;-90
2021/01/05 08:23:00;;;;;;;3.73;3.13;;;;;;;9.98;100.00;95976.41;6215453;23;20266;-90
2021/01/05 08:25:27;;;;;;;2.63;2.30;;;;;;;9.82;100.00;95991.31;6215179;23;20209;-90
2021/01/05 08:27:54;;;;;;;3.97;2.57;;;;;;;10.69;100.00;95984.66;6214908;23;20631;-90
2021/01/05 08:30:23;;;;;;;3.73;3.13;;;;;;;10.69;100.00;95998.59;6215105;23;20627;-90
2021/01/05 08:32:51;;;;;;;5.33;3.20;;;;;;;10.66;100.00;96000.75;6215319;23;20174;-90
2021/01/05 08:35:21;;;;;;;3.47;3.17;;;;;;;11.15;100.00;95998.03;6215054;23;20174;-90
2021/01/05 08:37:49;;;;;;;4.73;2.93;;;;;;;10.68;100.00;96002.22;6215003;23;20170;-90
2021/01/05 08:40:18;;;;;;;5.13;4.37;;;;;;;11.38;100.00;96000.78;6214901;23;20644;-90
2021/01/05 08:42:45;;;;;;;5.10;4.60;;;;;;;11.67;100.00;96008.03;6215331;23;20174;-90
2021/01/05 08:45:13;;;;;;;3.10;2.57;;;;;;;11.08;100.00;96005.78;6215197;23;20538;-90
2021/01/05 08:47:40;;;;;;;2.00;1.90;;;;;;;11.00;100.00;96005.81;6214999;23;20202;-90
2021/01/05 08:50:09;;;;;;;4.37;3.93;;;;;;;11.66;100.00;95999.31;6214869;23;20174;-89
2021/01/05 08:52:36;;;;;;;3.00;2.70;;;;;;;11.81;100.00;95990.69;6214985;23;20305;-90
2021/01/05 08:55:05;;;;;;;2.47;2.27;;;;;;;11.68;100.00;95993.91;6215305;23;20170;-90
2021/01/05 08:57:31;;;;;;;2.17;1.90;;;;;;;11.71;100.00;95992.72;6215049;23;20663;-89
2021/01/05 08:59:58;;;;;;;1.93;1.83;;;;;;;11.56;100.00;95997.91;6215019;23;20185;-89
2021/01/05 09:02:25;;;;;;;1.67;1.30;;;;;;;12.06;100.00;96002.78;6215219;23;20178;-89
2021/01/05 09:04:52;;;;;;;1.60;1.50;;;;;;;12.17;100.00;95995.47;6214514;23;20205;-89
2021/01/05 09:07:20;;;;;;;1.90;1.80;;;;;;;12.81;100.00;96001.22;6214794;23;20249;-89
2021/01/05 09:09:48;;;;;;;2.13;1.93;;;;;;;12.60;100.00;96007.97;6215207;23;20519;-89
2021/01/05 09:12:16;;;;;;;1.90;1.80;;;;;;;13.36;100.00;96015.84;6214835;23;20205;-89
2021/01/05 09:14:43;;;;;;;1.50;1.40;;;;;;;13.43;100.00;96010.69;6214805;23;20170;-89
2021/01/05 09:17:10;;;;;;;1.33;1.23;;;;;;;13.61;100.00;96005.81;6216541;23;20177;-89
2021/01/05 09:19:39;;;;;;;1.60;1.50;;;;;;;13.08;100.00;96007.72;6216650;23;20174;-89
2021/01/05 09:22:06;;;;;;;2.80;2.43;;;;;;;13.79;100.00;96008.91;6216368;23;20236;-88
2021/01/05 09:24:33;;;;;;;13.23;10.47;;;;;;;13.93;100.00;96020.47;6216950;23;20209;-88
2021/01/05 09:27:00;;;;;;;3.80;3.40;;;;;;;13.65;100.00;96028.25;6216781;23;20181;-88
2021/01/05 09:29:28;;;;;;;3.73;3.37;;;;;;;12.31;100.00;96027.16;6216872;23;20175;-88
2021/01/05 09:31:56;;;;;;;2.70;2.50;;;;;;;11.41;100.00;96021.47;6216779;23;20213;-89
2021/01/05 09:34:24;;;;;;;2.83;2.63;;;;;;;11.57;100.00;96034.59;6216788;23;20177;-88
2021/01/05 09:36:52;;;;;;;2.73;2.30;;;;;;;11.00;100.00;96032.09;6216315;23;20258;-88
2021/01/05 09:39:22;;;;;;;3.47;3.17;;;;;;;10.91;100.00;96031.31;6216537;23;20675;-88
2021/01/05 09:41:50;;;;;;;2.77;2.47;;;;;;;11.15;100.00;96030.44;6216320;23;20232;-88
2021/01/05 09:44:18;;;;;;;1.37;1.20;;;;;;;11.90;100.00;96031.84;6216682;23;20511;-88
2021/01/05 09:46:51;;;;;;;4.33;3.20;;;;;;;11.86;100.00;96026.09;6216268;23;20177;-88
2021/01/05 09:49:18;;;;;;;3.60;3.30;;;;;;;12.59;100.00;96027.44;6216209;23;20189;-88
2021/01/05 09:51:45;;;;;;;2.70;2.50;;;;;;;12.95;100.00;96024.16;6216377;23;20181;-88
2021/01/05 09:54:13;;;;;;;1.93;1.73;;;;;;;12.74;100.00;96024.84;6216493;23;20671;-87
2021/01/05 09:56:40;;;;;;;1.60;1.50;;;;;;;12.70;100.00;96018.28;6216450;23;20625;-88
2021/01/05 09:59:07;;;;;;;2.60;2.40;;;;;;;13.15;100.00;96021.81;6216444;23;20174;-87
2021/01/05 10:01:34;;;;;;;2.50;2.30;;;;;;;13.69;100.00;96029.50;6216269;23;20166;-88
2021/01/05 10:04:03;;;;;;;1.57;1.47;;;;;;;13.30;100.00;96017.41;6216087;23;20208;-88
2021/01/05 10:06:31;;;;;;;2.47;1.90;;;;;;;13.24;100.00;96014.69;6203661;23;20194;-88
2021/01/05 10:08:58;;;;;;;3.73;2.80;;;;;;;13.38;100.00;96018.34;6216387;23;20170;-88
2021/01/05 10:11:31;;;;;;;2.90;2.70;;;;;;;13.11;100.00;96022.38;6216453;23;20245;-87
2021/01/05 10:13:58;;;;;;;2.90;2.70;;;;;;;13.76;100.00;96025.13;6216072;23;20168;-88
2021/01/05 10:16:24;;;;;;;3.83;3.53;;;;;;;14.04;100.00;96016.53;6216360;23;20172;-87
2021/01/05 10:18:51;;;;;;;1.60;1.50;;;;;;;13.18;100.00;96016.19;6216492;23;20257;-87
2021/01/05 10:21:23;;;;;;;1.90;1.80;;;;;;;13.60;100.00;96021.88;6216413;23;20566;-87
2021/01/05 10:23:50;;;;;;;2.00;1.90;;;;;;;13.90;100.00;96014.72;6215968;23;20215;-87
2021/01/05 10:26:17;;;;;;;1.90;1.80;;;;;;;13.73;100.00;96014.13;6215530;23;20234;-88
2021/01/05 10:28:44;;;;;;;1.47;1.37;;;;;;;14.11;100.00;96013.94;6215851;23;20170;-88
2021/01/05 10:31:11;;;;;;;1.93;1.57;;;;;;;13.72;100.00;96002.75;6215727;23;20578;-88
2021/01/05 10:33:37;;;;;;;2.10;1.90;;;;;;;14.32;100.00;95994.66;6215895;23;20170;-87
2021/01/05 10:36:05;;;;;;;1.50;1.40;;;;;;;14.43;100.00;95997.59;6215791;23;20176;-88
2021/01/05 10:38:33;;;;;;;2.10;1.90;;;;;;;14.34;100.00;95993.47;6215566;23;20170;-88
2021/01/05 10:40:59;;;;;;;1.37;1.33;;;;;;;14.70;100.00;95993.41;6215945;23;20237;-88
2021/01/05 10:43:26;;;;;;;2.10;1.83;;;;;;;13.69;100.00;96002.28;6215889;23;20244;-87
2021/01/05 10:45:53;;;;;;;2.17;1.77;;;;;;;13.84;100.00;96005.72;6215609;23;20208;-88
2021/01/05 10:48:20;;;;;;;3.30;2.40;;;;;;;14.33;100.00;96012.97;6215672;23;20177;-87
2021/01/05 10:50:47;;;;;;;3.13;2.83;;;;;;;14.53;100.00;96007.91;6215747;23;20177;-87
2021/01/05 10:53:14;;;;;;;1.97;1.80;;;;;;;14.31;100.00;96014.97;6215915;23;20174;-87
2021/01/05 10:55:42;;;;;;;2.67;2.17;;;;;;;14.07;100.00;96012.69;6215249;23;20178;-87
2021/01/05 10:58:09;;;;;;;1.57;1.47;;;;;;;14.12;100.00;96018.22;6215365;23;20178;-87
2021/01/05 11:00:35;;;;;;;1.80;1.70;;;;;;;14.41;100.00;96009.38;6215276;23;20206;-87
2021/01/05 11:03:02;;;;;;;1.60;1.50;;;;;;;13.53;100.00;96014.66;6215505;23;20596;-86
2021/01/05 11:05:29;;;;;;;2.50;1.87;;;;;;;13.49;100.00;96018.69;6215230;23;20197;-87
2021/01/05 11:07:56;;;;;;;1.90;1.70;;;;;;;13.15;100.00;96016.53;6215329;23;20181;-87
2021/01/05 11:10:23;;;;;;;1.90;1.80;;;;;;;12.12;100.00;96017.91;6215207;23;20226;-87
2021/01/05 11:12:51;;;;;;;2.17;1.97;;;;;;;12.14;100.00;96026.44;6215731;23;20574;-87
2021/01/05 11:15:18;;;;;;;3.37;2.70;;;;;;;11.90;100.00;96030.03;6215256;23;20253;-87
2021/01/05 11:17:45;;;;;;;2.80;2.03;;;;;;;11.88;100.00;96042.56;6215312;23;20211;-87
2021/01/05 11:20:14;;;;;;;2.87;2.57;;;;;;;11.73;100.00;96040.78;6215207;23;20200;-87
2021/01/05 11:22:41;;;;;;;1.97;1.87;;;;;;;11.76;100.00;96037.81;6215238;23;20170;-87
2021/01/05 11:25:09;;;;;;;1.93;1.80;;;;;;;11.95;100.00;96055.00;6215075;23;20694;-87
2021/01/05 11:27:36;;;;;;;2.23;2.07;;;;;;;12.01;100.00;96055.16;6215507;23;20180;-87
2021/01/05 11:30:06;;;;;;;2.20;2.00;;;;;;;11.91;100.00;96057.16;6215006;23;20181;-87
2021/01/05 11:32:33;;;;;;;2.60;2.37;;;;;;;11.93;100.00;96060.47;6215113;23;20248;-87
2021/01/05 11:35:00;;;;;;;1.60;1.50;;;;;;;11.95;100.00;96065.53;6215496;23;20173;-87
2021/01/05 11:37:27;;;;;;;5.10;2.77;;;;;;;12.02;100.00;96059.44;6214986;23;20175;-87
2021/01/05 11:39:54;;;;;;;2.67;2.47;;;;;;;11.97;100.00;96055.66;6215316;23;20565;-87
2021/01/05 11:42:23;;;;;;;3.50;2.80;;;;;;;12.06;100.00;96052.00;6215386;23;20515;-87